Time;durP1;ratioP1;P1;durP2;ratioP2;P2;SDS_P1;SDS_P2;PMS_P1;PMS_P2;Temp;Humidity;BMP_temperature;BMP_pressure;BME280_temperature;BME280_humidity;BME280_pressure;Samples;Min_cycle;Max_cycle;Signal;HPM_P1;HPM_P2
2023/10/10 00:00:57;;;;;;;16.55;11.23;;;;;;;;;;5055085;28;20473;-79
2023/10/10 00:03:23;;;;;;;16.05;10.75;;;;;;;;;;5052036;28;20091;-77
2023/10/10 00:05:48;;;;;;;16.45;10.75;;;;;;;;;;5066669;28;20063;-76
2023/10/10 00:08:15;;;;;;;16.30;11.38;;;;;;;;;;5056356;28;20028;-78
2023/10/10 00:10:55;;;;;;;17.67;10.80;;;;;;;;;;5064639;28;20480;-77
2023/10/10 00:13:23;;;;;;;17.27;10.98;;;;;;;;;;5052857;28;20028;-77
2023/10/10 00:15:55;;;;;;;15.10;10.98;;;;;;;;;;5050481;28;20066;-77
2023/10/10 00:18:21;;;;;;;16.58;11.73;;;;;;;;;;5042146;28;20031;-78
2023/10/10 00:21:06;;;;;;;17.40;11.13;;;;;;;;;;5062069;28;20052;-76
2023/10/10 00:23:47;;;;;;;15.98;11.43;;;;;;;;;;5051257;28;20431;-77
2023/10/10 00:26:13;;;;;;;17.40;11.25;;;;;;;;;;5062170;28;20080;-78
2023/10/10 00:28:42;;;;;;;17.80;12.20;;;;;;;;;;5045534;28;20119;-76
2023/10/10 00:31:10;;;;;;;17.15;12.02;;;;;;;;;;5065970;28;20017;-77
2023/10/10 00:33:38;;;;;;;16.10;11.80;;;;;;;;;;5065330;28;20021;-78
2023/10/10 00:36:05;;;;;;;16.55;12.07;;;;;;;;;;5060544;28;20984;-76
2023/10/10 00:38:30;;;;;;;15.70;11.10;;;;;;;;;;5043160;28;20029;-77
2023/10/10 00:40:57;;;;;;;16.08;11.52;;;;;;;;;;5061933;28;20430;-79
2023/10/10 00:43:24;;;;;;;17.10;12.02;;;;;;;;;;5043715;28;20029;-76
2023/10/10 00:45:53;;;;;;;19.42;12.63;;;;;;;;;;5061298;28;21788;-76
2023/10/10 00:48:23;;;;;;;17.20;11.48;;;;;;;;;;5044668;28;20411;-77
2023/10/10 00:51:05;;;;;;;18.13;11.73;;;;;;;;;;5054615;28;20040;-80
2023/10/10 00:53:33;;;;;;;18.85;11.73;;;;;;;;;;5040751;28;20388;-80
2023/10/10 00:55:59;;;;;;;17.20;12.02;;;;;;;;;;5041294;28;20036;-80
2023/10/10 00:58:35;;;;;;;17.17;11.88;;;;;;;;;;5041492;28;20024;-80
2023/10/10 01:01:05;;;;;;;18.70;12.27;;;;;;;;;;5058270;28;20386;-86
2023/10/10 01:03:32;;;;;;;17.90;12.18;;;;;;;;;;5058786;28;20084;-85
2023/10/10 01:06:04;;;;;;;16.13;12.10;;;;;;;;;;5044851;28;20028;-86
2023/10/10 01:08:49;;;;;;;17.50;12.43;;;;;;;;;;5059607;28;20028;-84
2023/10/10 01:11:16;;;;;;;17.90;13.10;;;;;;;;;;5044378;28;20115;-83
2023/10/10 01:13:41;;;;;;;19.13;13.88;;;;;;;;;;5038984;28;20392;-84
2023/10/10 01:16:08;;;;;;;19.25;12.50;;;;;;;;;;5040681;28;20025;-86
2023/10/10 01:18:39;;;;;;;18.42;14.05;;;;;;;;;;5061369;28;20035;-81
2023/10/10 01:21:05;;;;;;;18.67;14.10;;;;;;;;;;5060681;28;20028;-81
2023/10/10 01:23:33;;;;;;;16.60;12.88;;;;;;;;;;5063667;28;20032;-85
2023/10/10 01:26:06;;;;;;;17.67;13.40;;;;;;;;;;5059998;28;20078;-86
2023/10/10 01:28:34;;;;;;;;;;;;;;;;;;5065067;28;20628;-85
2023/10/10 01:31:04;;;;;;;16.92;12.60;;;;;;;;;;5061969;28;19923;-82
2023/10/10 01:33:47;;;;;;;19.35;14.35;;;;;;;;;;5066536;28;20025;-80
2023/10/10 01:36:18;;;;;;;19.05;13.48;;;;;;;;;;5062630;28;20028;-87
2023/10/10 01:38:56;;;;;;;18.15;13.75;;;;;;;;;;5059187;28;20041;-83
2023/10/10 01:41:38;;;;;;;17.45;13.32;;;;;;;;;;5041647;28;20101;-86
2023/10/10 01:44:13;;;;;;;18.23;14.43;;;;;;;;;;5060942;28;20028;-86
2023/10/10 01:46:40;;;;;;;18.92;14.63;;;;;;;;;;5058701;28;20120;-85
2023/10/10 01:49:10;;;;;;;18.35;14.15;;;;;;;;;;5043353;28;20029;-82
2023/10/10 01:51:42;;;;;;;18.13;13.77;;;;;;;;;;5058956;28;20626;-86
2023/10/10 01:54:14;;;;;;;18.83;13.85;;;;;;;;;;5041953;28;20081;-85
2023/10/10 01:56:40;;;;;;;17.75;13.77;;;;;;;;;;5041066;28;20093;-81
2023/10/10 01:59:09;;;;;;;18.35;13.98;;;;;;;;;;5062888;28;20036;-79
2023/10/10 02:01:35;;;;;;;18.88;14.32;;;;;;;;;;5050191;28;20551;-79
2023/10/10 02:04:05;;;;;;;20.67;15.02;;;;;;;;;;5052356;28;20063;-79
2023/10/10 02:06:34;;;;;;;18.08;14.68;;;;;;;;;;5064737;28;20388;-79
2023/10/10 02:09:11;;;;;;;20.25;14.70;;;;;;;;;;5053725;28;20051;-79
2023/10/10 02:11:38;;;;;;;18.55;14.07;;;;;;;;;;5068247;28;20025;-78
2023/10/10 02:14:11;;;;;;;18.98;13.18;;;;;;;;;;5069783;28;20490;-79
2023/10/10 02:16:40;;;;;;;18.23;13.95;;;;;;;;;;5047906;28;20492;-79
2023/10/10 02:19:15;;;;;;;19.13;13.85;;;;;;;;;;5048758;28;20028;-78
2023/10/10 02:21:47;;;;;;;20.38;15.13;;;;;;;;;;5068539;28;20469;-78
2023/10/10 02:26:54;;;;;;;17.30;13.77;;;;;;;;;;5064396;28;20032;-79
2023/10/10 02:29:34;;;;;;;18.98;13.65;;;;;;;;;;5071032;28;20032;-79
2023/10/10 02:32:10;;;;;;;18.42;13.82;;;;;;;;;;5046043;28;20523;-80
2023/10/10 02:34:36;;;;;;;21.10;14.63;;;;;;;;;;5044457;28;20596;-78
2023/10/10 02:37:14;;;;;;;17.63;13.60;;;;;;;;;;5066599;28;20458;-78
2023/10/10 02:39:46;;;;;;;18.00;14.88;;;;;;;;;;5069416;28;20029;-79
2023/10/10 02:42:18;;;;;;;17.95;13.65;;;;;;;;;;5063518;28;20081;-79
2023/10/10 02:44:46;;;;;;;17.00;13.52;;;;;;;;;;5064705;28;20028;-79
2023/10/10 02:47:13;;;;;;;17.15;13.23;;;;;;;;;;5060707;28;20566;-79
2023/10/10 02:49:42;;;;;;;16.92;13.25;;;;;;;;;;5047901;28;20021;-80
2023/10/10 02:52:08;;;;;;;17.02;12.98;;;;;;;;;;5062054;28;20028;-80
2023/10/10 02:54:34;;;;;;;17.90;13.73;;;;;;;;;;5056645;28;20033;-80
2023/10/10 02:59:45;;;;;;;17.20;12.95;;;;;;;;;;5056422;28;20074;-80
2023/10/10 03:02:18;;;;;;;16.00;12.85;;;;;;;;;;5042280;28;20024;-79
2023/10/10 03:05:05;;;;;;;15.82;13.25;;;;;;;;;;5057160;28;20021;-80
2023/10/10 03:07:31;;;;;;;15.80;12.85;;;;;;;;;;5058513;28;20028;-80
2023/10/10 03:12:43;;;;;;;15.05;12.15;;;;;;;;;;5065132;28;20464;-80
2023/10/10 03:17:48;;;;;;;15.23;12.60;;;;;;;;;;5066548;28;20093;-80
2023/10/10 05:25:22;;;;;;;24.60;19.17;;;;;;;;;;5063512;28;20044;-78
2023/10/10 05:27:51;;;;;;;23.98;18.83;;;;;;;;;;5054173;28;20078;-78
2023/10/10 05:30:23;;;;;;;21.80;16.92;;;;;;;;;;5064292;28;20055;-78
2023/10/10 05:33:00;;;;;;;22.73;17.53;;;;;;;;;;5061701;28;20673;-78
2023/10/10 05:35:39;;;;;;;23.60;17.65;;;;;;;;;;5064746;28;20768;-84
2023/10/10 05:38:07;;;;;;;24.45;18.83;;;;;;;;;;5061426;28;20495;-85
2023/10/10 05:40:33;;;;;;;24.55;17.80;;;;;;;;;;5061128;28;20027;-85
2023/10/10 05:42:59;;;;;;;24.80;18.55;;;;;;;;;;5070992;28;20082;-85
2023/10/10 05:45:24;;;;;;;26.25;19.38;;;;;;;;;;5072190;28;20430;-84
2023/10/10 05:47:50;;;;;;;26.95;18.08;;;;;;;;;;5067836;28;20024;-84
2023/10/10 05:50:18;;;;;;;23.85;18.15;;;;;;;;;;5046935;28;20123;-85
2023/10/10 05:52:44;;;;;;;23.52;18.05;;;;;;;;;;5057139;28;20032;-84
2023/10/10 05:55:12;;;;;;;24.48;18.38;;;;;;;;;;5048143;28;20477;-81
2023/10/10 05:57:39;;;;;;;24.80;17.90;;;;;;;;;;5053137;28;20112;-84
2023/10/10 06:00:10;;;;;;;25.35;18.27;;;;;;;;;;5064652;28;20016;-85
2023/10/10 06:02:36;;;;;;;25.40;19.15;;;;;;;;;;5044060;28;20053;-84
2023/10/10 06:05:04;;;;;;;24.05;18.30;;;;;;;;;;5063006;28;20491;-85
2023/10/10 06:07:30;;;;;;;24.30;18.10;;;;;;;;;;5049334;28;20038;-81
2023/10/10 06:09:57;;;;;;;27.08;19.13;;;;;;;;;;5040551;28;20021;-86
2023/10/10 06:12:24;;;;;;;24.35;18.13;;;;;;;;;;5063449;28;20027;-86
2023/10/10 06:14:49;;;;;;;26.63;19.00;;;;;;;;;;5061579;28;20533;-82
2023/10/10 06:17:15;;;;;;;26.83;17.58;;;;;;;;;;5061480;28;20024;-86
2023/10/10 06:19:45;;;;;;;27.02;19.13;;;;;;;;;;5059981;28;20016;-79
2023/10/10 06:22:14;;;;;;;23.02;17.30;;;;;;;;;;5055068;28;20219;-78
2023/10/10 06:24:43;;;;;;;22.75;16.80;;;;;;;;;;5035676;28;20043;-78
2023/10/10 06:27:09;;;;;;;23.60;16.73;;;;;;;;;;5053986;28;20064;-78
2023/10/10 06:29:35;;;;;;;25.63;16.67;;;;;;;;;;5060337;28;20130;-78
2023/10/10 06:32:02;;;;;;;24.35;17.33;;;;;;;;;;5056251;28;20028;-79
2023/10/10 06:34:34;;;;;;;23.63;18.23;;;;;;;;;;5038669;28;20029;-78
2023/10/10 06:37:07;;;;;;;21.97;16.23;;;;;;;;;;5056139;28;20115;-78
2023/10/10 06:39:33;;;;;;;25.27;15.93;;;;;;;;;;5039952;28;20273;-79
2023/10/10 06:42:03;;;;;;;22.70;16.50;;;;;;;;;;5052031;28;22046;-78
2023/10/10 06:44:32;;;;;;;23.52;17.08;;;;;;;;;;5041334;28;20024;-78
2023/10/10 06:46:58;;;;;;;21.98;16.20;;;;;;;;;;5043776;28;20028;-78
2023/10/10 06:49:23;;;;;;;23.13;16.75;;;;;;;;;;5058184;28;20032;-76
2023/10/10 06:51:50;;;;;;;19.65;14.85;;;;;;;;;;5060395;28;20362;-79
2023/10/10 06:54:27;;;;;;;20.40;16.17;;;;;;;;;;5052483;28;20527;-78
2023/10/10 06:57:04;;;;;;;20.38;14.68;;;;;;;;;;5051810;28;20032;-79
2023/10/10 06:59:30;;;;;;;21.08;16.05;;;;;;;;;;5065522;28;20025;-79
2023/10/10 07:02:13;;;;;;;22.48;16.00;;;;;;;;;;5056730;28;20028;-78
2023/10/10 07:04:54;;;;;;;24.80;16.67;;;;;;;;;;5066051;28;20052;-78
2023/10/10 07:07:20;;;;;;;20.95;14.30;;;;;;;;;;5063330;28;20020;-78
2023/10/10 07:09:46;;;;;;;20.98;13.98;;;;;;;;;;5066370;28;20039;-79
2023/10/10 07:12:13;;;;;;;20.15;13.57;;;;;;;;;;5064321;28;20532;-78
2023/10/10 07:14:43;;;;;;;19.42;15.02;;;;;;;;;;5064285;28;20397;-78
2023/10/10 07:17:12;;;;;;;20.55;14.38;;;;;;;;;;5057526;28;20024;-80
2023/10/10 07:22:33;;;;;;;20.90;15.88;;;;;;;;;;5063851;28;20507;-79
2023/10/10 07:25:09;;;;;;;20.98;14.15;;;;;;;;;;5070682;28;20029;-79
2023/10/10 07:27:35;;;;;;;21.90;14.35;;;;;;;;;;5055559;28;20027;-79
2023/10/10 07:30:16;;;;;;;21.48;15.02;;;;;;;;;;5056115;28;20021;-79
2023/10/10 07:32:48;;;;;;;19.00;14.05;;;;;;;;;;5063079;28;20021;-79
2023/10/10 07:35:17;;;;;;;19.85;14.13;;;;;;;;;;5066166;28;20024;-79
2023/10/10 07:37:43;;;;;;;21.05;14.02;;;;;;;;;;5072005;28;20029;-79
2023/10/10 07:42:59;;;;;;;18.45;13.25;;;;;;;;;;5065159;28;20039;-79
2023/10/10 07:46:17;;;;;;;17.48;12.70;;;;;;;;;;5067018;28;20034;-79
2023/10/10 07:50:48;;;;;;;16.17;12.30;;;;;;;;;;5064867;28;20037;-79
2023/10/10 07:53:14;;;;;;;16.35;11.57;;;;;;;;;;5054245;28;20123;-79
2023/10/10 07:55:54;;;;;;;17.17;12.05;;;;;;;;;;5053322;28;20485;-79
2023/10/10 07:58:23;;;;;;;20.45;14.38;;;;;;;;;;5067748;28;20020;-79
2023/10/10 08:00:52;;;;;;;20.50;15.77;;;;;;;;;;5068645;28;20139;-87
2023/10/10 08:03:20;;;;;;;20.15;13.43;;;;;;;;;;5067781;28;20024;-87
2023/10/10 08:05:50;;;;;;;19.13;13.85;;;;;;;;;;5072718;28;20537;-87
2023/10/10 08:08:16;;;;;;;18.27;12.48;;;;;;;;;;5051967;28;20371;-87
2023/10/10 08:10:45;;;;;;;18.38;11.88;;;;;;;;;;5067394;28;20020;-88
2023/10/10 08:13:11;;;;;;;19.80;13.82;;;;;;;;;;5075294;28;20044;-87
2023/10/10 08:23:31;;;;;;;18.05;12.73;;;;;;;;;;5083153;28;20473;-87
2023/10/10 08:25:57;;;;;;;18.63;14.18;;;;;;;;;;5045103;28;20473;-86
2023/10/10 08:28:23;;;;;;;21.50;15.43;;;;;;;;;;5054911;28;20020;-87
2023/10/10 08:30:50;;;;;;;20.70;15.27;;;;;;;;;;5072125;28;20055;-84
2023/10/10 08:33:15;;;;;;;21.88;14.98;;;;;;;;;;5067678;28;20033;-86
2023/10/10 08:35:42;;;;;;;22.00;15.07;;;;;;;;;;5065185;28;20032;-86
2023/10/10 08:38:08;;;;;;;21.73;16.02;;;;;;;;;;5055597;28;20051;-87
2023/10/10 08:40:35;;;;;;;23.98;17.30;;;;;;;;;;5067417;28;20111;-87
2023/10/10 08:43:03;;;;;;;23.08;16.15;;;;;;;;;;5069768;28;20472;-86
2023/10/10 08:45:39;;;;;;;25.55;17.17;;;;;;;;;;5053816;28;20025;-87
2023/10/10 08:48:12;;;;;;;25.65;16.98;;;;;;;;;;5071387;28;20112;-86
2023/10/10 08:50:40;;;;;;;21.17;16.70;;;;;;;;;;5063886;28;20107;-86
2023/10/10 08:53:10;;;;;;;24.27;17.85;;;;;;;;;;5075063;28;20020;-87
2023/10/10 08:55:38;;;;;;;23.33;17.58;;;;;;;;;;5044524;28;20078;-86
2023/10/10 08:58:07;;;;;;;21.45;15.93;;;;;;;;;;5071361;28;20116;-87
2023/10/10 09:00:33;;;;;;;23.70;17.52;;;;;;;;;;5053110;28;20107;-85
2023/10/10 09:02:59;;;;;;;23.33;17.05;;;;;;;;;;5073749;28;20503;-88
2023/10/10 09:05:28;;;;;;;24.80;18.67;;;;;;;;;;5068174;28;20032;-87
2023/10/10 09:07:54;;;;;;;23.42;17.23;;;;;;;;;;5050605;28;20024;-87
2023/10/10 09:10:29;;;;;;;22.83;17.88;;;;;;;;;;5054065;28;20035;-80
2023/10/10 09:15:21;;;;;;;23.85;18.80;;;;;;;;;;5071866;28;20387;-79
2023/10/10 09:17:47;;;;;;;22.77;17.67;;;;;;;;;;5070337;28;20042;-80
2023/10/10 09:20:22;;;;;;;23.73;18.13;;;;;;;;;;5065034;28;20053;-79
2023/10/10 09:22:52;;;;;;;27.33;18.65;;;;;;;;;;5066265;28;20506;-79
2023/10/10 09:25:31;;;;;;;23.30;18.15;;;;;;;;;;5069914;28;20029;-79
2023/10/10 09:28:04;;;;;;;27.98;19.02;;;;;;;;;;5057846;28;20515;-87
2023/10/10 09:30:37;;;;;;;24.02;18.58;;;;;;;;;;5075347;28;20515;-87
2023/10/10 09:33:13;;;;;;;25.00;18.60;;;;;;;;;;5067032;28;20434;-86
2023/10/10 09:35:48;;;;;;;22.55;17.83;;;;;;;;;;5050952;28;20501;-87
2023/10/10 09:38:19;;;;;;;22.23;17.33;;;;;;;;;;5042228;28;20072;-88
2023/10/10 09:40:47;;;;;;;24.25;17.60;;;;;;;;;;5070176;28;20079;-87
2023/10/10 09:43:24;;;;;;;25.63;17.77;;;;;;;;;;5053654;28;20024;-80
2023/10/10 09:46:10;;;;;;;24.23;16.95;;;;;;;;;;5064631;28;20488;-80
2023/10/10 09:51:30;;;;;;;23.27;16.75;;;;;;;;;;5075205;28;20035;-79
2023/10/10 09:54:07;;;;;;;24.67;16.13;;;;;;;;;;5048426;28;20031;-80
2023/10/10 09:56:37;;;;;;;20.67;15.25;;;;;;;;;;5054059;28;20028;-80
2023/10/10 09:59:06;;;;;;;24.63;15.13;;;;;;;;;;5059655;28;20077;-80
2023/10/10 10:01:44;;;;;;;22.20;14.93;;;;;;;;;;5066111;28;20020;-80
2023/10/10 10:04:18;;;;;;;24.00;14.95;;;;;;;;;;5053297;28;20020;-80
2023/10/10 10:07:12;;;;;;;24.10;15.43;;;;;;;;;;5068420;28;20028;-80
2023/10/10 10:10:09;;;;;;;21.73;15.77;;;;;;;;;;5068778;28;20476;-80
2023/10/10 10:12:59;;;;;;;22.10;14.50;;;;;;;;;;5044740;28;20032;-80
2023/10/10 10:15:49;;;;;;;20.13;15.35;;;;;;;;;;5061238;28;20025;-81
2023/10/10 10:18:44;;;;;;;22.00;14.80;;;;;;;;;;5067035;28;20047;-80
2023/10/10 10:21:19;;;;;;;18.50;13.00;;;;;;;;;;5064919;28;20024;-79
2023/10/10 10:23:47;;;;;;;20.73;13.75;;;;;;;;;;5072522;28;20508;-76
2023/10/10 10:26:41;;;;;;;17.05;12.65;;;;;;;;;;5074043;28;20086;-78
2023/10/10 10:29:16;;;;;;;17.83;13.15;;;;;;;;;;5071904;28;20032;-77
2023/10/10 10:31:50;;;;;;;18.95;12.57;;;;;;;;;;5074939;28;20469;-77
2023/10/10 10:37:13;;;;;;;19.67;12.20;;;;;;;;;;5066985;28;20079;-77
2023/10/10 10:39:46;;;;;;;21.63;13.45;;;;;;;;;;5043221;28;20024;-77
2023/10/10 10:42:15;;;;;;;;;;;;;;;;;;5070540;28;20465;-76
2023/10/10 10:44:55;;;;;;;17.63;12.82;;;;;;;;;;5075576;28;20382;-77
2023/10/10 10:47:35;;;;;;;16.88;10.98;;;;;;;;;;5069021;28;20504;-78
2023/10/10 10:50:17;;;;;;;16.50;11.55;;;;;;;;;;5049208;28;20519;-77
2023/10/10 10:52:48;;;;;;;18.52;12.10;;;;;;;;;;5065833;28;20509;-77
2023/10/10 10:55:24;;;;;;;19.83;11.27;;;;;;;;;;5066262;28;20174;-77
2023/10/10 10:58:05;;;;;;;18.42;12.27;;;;;;;;;;5060163;28;20028;-77
2023/10/10 11:01:00;;;;;;;15.18;10.73;;;;;;;;;;5063516;28;20016;-77
2023/10/10 11:03:38;;;;;;;17.23;11.55;;;;;;;;;;5073577;28;20476;-78
2023/10/10 11:06:07;;;;;;;18.08;11.15;;;;;;;;;;5046881;28;20036;-77
2023/10/10 11:11:24;;;;;;;17.73;12.23;;;;;;;;;;5060384;28;20117;-78
2023/10/10 11:13:54;;;;;;;18.80;10.65;;;;;;;;;;5066260;28;20028;-78
2023/10/10 11:16:28;;;;;;;17.75;11.23;;;;;;;;;;5064706;28;20025;-78
2023/10/10 11:18:57;;;;;;;15.80;10.80;;;;;;;;;;5056786;28;20028;-78
2023/10/10 11:21:28;;;;;;;16.58;11.27;;;;;;;;;;5044708;28;20104;-77
2023/10/10 11:24:00;;;;;;;17.52;11.30;;;;;;;;;;5071862;28;20077;-77
2023/10/10 11:26:34;;;;;;;16.45;10.68;;;;;;;;;;5051019;28;20115;-78
2023/10/10 11:28:59;;;;;;;20.85;12.18;;;;;;;;;;5047231;28;20529;-78
2023/10/10 11:31:29;;;;;;;14.85;10.23;;;;;;;;;;5051700;28;20033;-78
2023/10/10 11:34:10;;;;;;;17.75;10.23;;;;;;;;;;5077464;28;20055;-79
2023/10/10 11:36:39;;;;;;;13.68;8.93;;;;;;;;;;5055414;28;20050;-77
2023/10/10 11:39:24;;;;;;;14.73;9.85;;;;;;;;;;5056293;28;20037;-78
2023/10/10 11:41:50;;;;;;;14.18;9.65;;;;;;;;;;5062112;28;20025;-80
2023/10/10 11:44:22;;;;;;;14.20;9.73;;;;;;;;;;5069991;28;20020;-80
2023/10/10 11:47:02;;;;;;;16.20;10.63;;;;;;;;;;5068075;28;20054;-80
2023/10/10 11:49:28;;;;;;;17.35;9.43;;;;;;;;;;5076847;28;20086;-80
2023/10/10 11:51:53;;;;;;;15.30;10.13;;;;;;;;;;5069371;28;20037;-80
2023/10/10 11:54:25;;;;;;;13.77;8.65;;;;;;;;;;5073372;28;20028;-80
2023/10/10 11:56:51;;;;;;;11.90;7.93;;;;;;;;;;5048769;28;20503;-80
2023/10/10 11:59:17;;;;;;;14.60;8.77;;;;;;;;;;5049446;28;20031;-80
2023/10/10 12:01:54;;;;;;;14.25;8.85;;;;;;;;;;5050228;28;20028;-80
2023/10/10 12:04:31;;;;;;;12.05;7.70;;;;;;;;;;5054102;28;20029;-80
2023/10/10 12:06:59;;;;;;;14.80;9.57;;;;;;;;;;5053020;28;20024;-80
2023/10/10 12:09:27;;;;;;;11.65;7.68;;;;;;;;;;5065861;28;20027;-80
2023/10/10 12:11:58;;;;;;;14.30;7.93;;;;;;;;;;5049222;28;20492;-80
2023/10/10 12:14:29;;;;;;;13.30;8.50;;;;;;;;;;5044544;28;20476;-81
2023/10/10 12:17:05;;;;;;;14.35;7.35;;;;;;;;;;5058044;28;20029;-81
2023/10/10 12:19:36;;;;;;;10.35;6.95;;;;;;;;;;5060371;28;20024;-81
2023/10/10 12:22:07;;;;;;;16.58;8.35;;;;;;;;;;5066190;28;20025;-81
2023/10/10 12:24:35;;;;;;;11.50;6.88;;;;;;;;;;5059648;28;20050;-81
2023/10/10 12:27:01;;;;;;;12.57;7.57;;;;;;;;;;5060123;28;20116;-80
2023/10/10 12:29:30;;;;;;;13.77;8.10;;;;;;;;;;5044992;28;20028;-81
2023/10/10 12:31:56;;;;;;;14.20;7.75;;;;;;;;;;5046645;28;20511;-85
2023/10/10 12:34:23;;;;;;;11.57;6.70;;;;;;;;;;5045500;28;20492;-83
2023/10/10 12:36:49;;;;;;;12.75;7.50;;;;;;;;;;5042845;28;20400;-85
2023/10/10 12:39:15;;;;;;;13.60;7.10;;;;;;;;;;5046210;28;20060;-84
2023/10/10 12:41:46;;;;;;;13.93;7.95;;;;;;;;;;5061113;28;20054;-81
2023/10/10 12:44:13;;;;;;;13.60;6.30;;;;;;;;;;5050106;28;20461;-81
2023/10/10 12:46:40;;;;;;;14.35;6.82;;;;;;;;;;5049236;28;20089;-80
2023/10/10 12:49:05;;;;;;;13.57;7.07;;;;;;;;;;5047659;28;20527;-80
2023/10/10 12:51:31;;;;;;;10.48;6.93;;;;;;;;;;5064531;28;20107;-80
2023/10/10 12:54:05;;;;;;;13.48;7.20;;;;;;;;;;5043063;28;20098;-79
2023/10/10 12:56:38;;;;;;;12.45;7.30;;;;;;;;;;5060667;28;20137;-79
2023/10/10 12:59:04;;;;;;;14.35;6.85;;;;;;;;;;5042931;28;20032;-79
2023/10/10 13:01:32;;;;;;;12.77;7.70;;;;;;;;;;5047583;28;20119;-85
2023/10/10 13:03:59;;;;;;;12.25;6.60;;;;;;;;;;5065880;28;20070;-86
2023/10/10 13:06:25;;;;;;;11.35;6.70;;;;;;;;;;5064613;28;20031;-84
2023/10/10 13:08:55;;;;;;;15.15;7.80;;;;;;;;;;5048965;28;20028;-82
2023/10/10 13:11:32;;;;;;;10.60;7.00;;;;;;;;;;5047809;28;20035;-84
2023/10/10 13:14:08;;;;;;;14.93;7.30;;;;;;;;;;5048907;28;20456;-85
2023/10/10 13:19:09;;;;;;;11.40;6.68;;;;;;;;;;5068950;28;20028;-83
2023/10/10 13:21:38;;;;;;;12.40;6.93;;;;;;;;;;5054196;28;20089;-85
2023/10/10 13:24:09;;;;;;;14.85;6.85;;;;;;;;;;5057073;28;20028;-85
2023/10/10 13:26:38;;;;;;;12.53;7.10;;;;;;;;;;5060909;28;20025;-84
2023/10/10 13:29:05;;;;;;;11.40;6.07;;;;;;;;;;5068843;28;20028;-84
2023/10/10 13:31:31;;;;;;;10.60;6.15;;;;;;;;;;5043174;28;20025;-84
2023/10/10 13:33:56;;;;;;;10.38;6.25;;;;;;;;;;5045623;28;20043;-85
2023/10/10 13:36:22;;;;;;;10.35;5.57;;;;;;;;;;5067003;28;20012;-85
2023/10/10 13:38:50;;;;;;;10.60;6.10;;;;;;;;;;5047402;28;20392;-83
2023/10/10 13:41:18;;;;;;;12.02;6.15;;;;;;;;;;5061914;28;20098;-85
2023/10/10 13:43:48;;;;;;;10.00;5.53;;;;;;;;;;5060444;28;20512;-86
2023/10/10 13:46:14;;;;;;;14.10;5.38;;;;;;;;;;5070012;28;20085;-84
2023/10/10 13:48:40;;;;;;;11.13;5.38;;;;;;;;;;5049563;28;20028;-84
2023/10/10 13:51:07;;;;;;;8.73;5.00;;;;;;;;;;5068490;28;20029;-84
2023/10/10 13:53:33;;;;;;;12.52;5.22;;;;;;;;;;5069151;28;20055;-84
2023/10/10 13:56:03;;;;;;;9.60;4.82;;;;;;;;;;5051502;28;20031;-84
2023/10/10 13:58:29;;;;;;;11.07;4.65;;;;;;;;;;5069023;28;20074;-82
2023/10/10 14:00:55;;;;;;;9.48;4.57;;;;;;;;;;5068922;28;20389;-85
2023/10/10 14:03:29;;;;;;;9.00;4.78;;;;;;;;;;5064852;28;20025;-82
2023/10/10 14:06:10;;;;;;;9.13;4.70;;;;;;;;;;5067813;28;20150;-82
2023/10/10 14:08:35;;;;;;;10.68;4.05;;;;;;;;;;5067068;28;20634;-82
2023/10/10 14:11:01;;;;;;;7.07;3.70;;;;;;;;;;5068046;28;20115;-81
2023/10/10 14:13:32;;;;;;;9.50;4.28;;;;;;;;;;5050309;28;20028;-81
2023/10/10 14:15:57;;;;;;;10.82;3.97;;;;;;;;;;5052133;28;20111;-81
2023/10/10 14:18:31;;;;;;;13.05;4.35;;;;;;;;;;5065436;28;20525;-80
2023/10/10 14:21:01;;;;;;;8.50;4.38;;;;;;;;;;5057798;28;20040;-81
2023/10/10 14:23:29;;;;;;;12.57;4.70;;;;;;;;;;5056949;28;20483;-80
2023/10/10 14:26:12;;;;;;;10.13;4.63;;;;;;;;;;5070447;28;20027;-81
2023/10/10 14:28:39;;;;;;;11.68;4.00;;;;;;;;;;5064777;28;20074;-80
2023/10/10 14:31:13;;;;;;;9.18;4.65;;;;;;;;;;5058538;28;20029;-80
2023/10/10 14:33:39;;;;;;;11.27;4.18;;;;;;;;;;5054602;28;20066;-80
2023/10/10 14:36:11;;;;;;;8.38;4.40;;;;;;;;;;5048912;28;20035;-80
2023/10/10 14:38:37;;;;;;;11.07;4.55;;;;;;;;;;5068300;28;20480;-80
2023/10/10 14:41:02;;;;;;;10.60;4.50;;;;;;;;;;5065356;28;20032;-81
2023/10/10 14:43:27;;;;;;;9.43;3.95;;;;;;;;;;5071016;28;20025;-81
2023/10/10 14:45:53;;;;;;;9.13;4.00;;;;;;;;;;5064314;28;20480;-81
2023/10/10 14:48:21;;;;;;;12.70;4.15;;;;;;;;;;5048338;28;20028;-81
2023/10/10 14:50:53;;;;;;;9.43;4.20;;;;;;;;;;5052065;28;20044;-80
2023/10/10 14:53:22;;;;;;;9.10;4.38;;;;;;;;;;5066050;28;20047;-80
2023/10/10 14:55:51;;;;;;;7.95;3.90;;;;;;;;;;5068526;28;20480;-80
2023/10/10 14:58:22;;;;;;;12.48;4.10;;;;;;;;;;5049861;28;20036;-80
2023/10/10 15:00:52;;;;;;;8.52;3.88;;;;;;;;;;5066275;28;20055;-81
2023/10/10 15:03:23;;;;;;;7.82;3.80;;;;;;;;;;5065981;28;20021;-80
2023/10/10 15:05:50;;;;;;;10.20;3.88;;;;;;;;;;5049001;28;20032;-80
2023/10/10 15:08:16;;;;;;;8.10;3.80;;;;;;;;;;5074159;28;20124;-81
2023/10/10 15:10:42;;;;;;;8.45;3.88;;;;;;;;;;5063149;28;20435;-80
2023/10/10 15:13:09;;;;;;;9.63;4.10;;;;;;;;;;5051934;28;20119;-80
2023/10/10 15:15:35;;;;;;;7.72;4.05;;;;;;;;;;5056242;28;20028;-85
2023/10/10 15:18:01;;;;;;;11.85;3.90;;;;;;;;;;5047430;28;20032;-84
2023/10/10 15:20:27;;;;;;;7.88;3.88;;;;;;;;;;5067249;28;20368;-79
2023/10/10 15:22:53;;;;;;;7.88;3.60;;;;;;;;;;5047331;28;20024;-79
2023/10/10 15:25:21;;;;;;;6.93;3.65;;;;;;;;;;5048996;28;20024;-79
2023/10/10 15:27:47;;;;;;;8.48;3.85;;;;;;;;;;5047633;28;20402;-80
2023/10/10 15:30:15;;;;;;;8.80;3.47;;;;;;;;;;5053922;28;20021;-81
2023/10/10 15:32:46;;;;;;;7.35;3.53;;;;;;;;;;5065283;28;20071;-79
2023/10/10 15:35:16;;;;;;;7.35;3.80;;;;;;;;;;5045611;28;20028;-79
2023/10/10 15:37:42;;;;;;;7.88;3.83;;;;;;;;;;5044337;28;20021;-80
2023/10/10 15:40:22;;;;;;;11.25;3.80;;;;;;;;;;5041380;28;20082;-79
2023/10/10 15:42:52;;;;;;;8.20;3.70;;;;;;;;;;5065437;28;20460;-79
2023/10/10 15:45:20;;;;;;;8.60;4.10;;;;;;;;;;5066356;28;20498;-81
2023/10/10 15:47:56;;;;;;;9.77;4.05;;;;;;;;;;5048294;28;20036;-79
2023/10/10 15:50:21;;;;;;;9.23;3.95;;;;;;;;;;5052495;28;20016;-79
2023/10/10 15:52:50;;;;;;;6.70;3.50;;;;;;;;;;5046529;28;20385;-79
2023/10/10 15:55:19;;;;;;;7.50;3.85;;;;;;;;;;5051441;28;20480;-80
2023/10/10 15:57:45;;;;;;;9.15;4.10;;;;;;;;;;5049639;28;20105;-79
2023/10/10 16:00:15;;;;;;;10.65;4.28;;;;;;;;;;5051182;28;20070;-79
2023/10/10 16:02:40;;;;;;;8.40;3.90;;;;;;;;;;5043468;28;20027;-79
2023/10/10 16:05:06;;;;;;;8.13;3.78;;;;;;;;;;5065288;28;20029;-79
2023/10/10 16:07:31;;;;;;;10.05;3.90;;;;;;;;;;5065276;28;20021;-80
2023/10/10 16:09:56;;;;;;;7.68;3.88;;;;;;;;;;5060415;28;20111;-81
2023/10/10 16:12:22;;;;;;;7.93;3.72;;;;;;;;;;5062232;28;20462;-80
2023/10/10 16:14:47;;;;;;;7.00;3.53;;;;;;;;;;5048288;28;20384;-79
2023/10/10 16:17:16;;;;;;;10.27;4.30;;;;;;;;;;5061542;28;20062;-79
2023/10/10 16:19:42;;;;;;;12.20;4.82;;;;;;;;;;5062445;28;20128;-79
2023/10/10 16:22:12;;;;;;;8.95;4.40;;;;;;;;;;5045644;28;20115;-79
2023/10/10 16:24:39;;;;;;;9.45;4.28;;;;;;;;;;5044157;28;20036;-79
2023/10/10 16:27:05;;;;;;;9.30;3.80;;;;;;;;;;5063393;28;20031;-79
2023/10/10 16:29:33;;;;;;;7.22;3.72;;;;;;;;;;5065913;28;20024;-79
2023/10/10 16:32:07;;;;;;;10.13;4.00;;;;;;;;;;5064853;28;20468;-79
2023/10/10 16:34:33;;;;;;;7.47;3.60;;;;;;;;;;5046278;28;20056;-78
2023/10/10 16:36:59;;;;;;;8.88;3.72;;;;;;;;;;5058011;28;20831;-79
2023/10/10 16:39:24;;;;;;;8.63;3.90;;;;;;;;;;5060452;28;20028;-78
2023/10/10 16:41:49;;;;;;;7.70;4.05;;;;;;;;;;5061124;28;20025;-81
2023/10/10 16:44:15;;;;;;;12.52;4.47;;;;;;;;;;5060431;28;20040;-80
2023/10/10 16:46:41;;;;;;;7.32;3.83;;;;;;;;;;5059281;28;21863;-81
2023/10/10 16:49:06;;;;;;;7.40;3.90;;;;;;;;;;5062140;28;20078;-81
2023/10/10 16:51:31;;;;;;;7.10;4.00;;;;;;;;;;5039985;28;20551;-78
2023/10/10 16:53:58;;;;;;;8.32;4.10;;;;;;;;;;5059640;28;20035;-81
2023/10/10 16:56:23;;;;;;;6.72;3.60;;;;;;;;;;5065332;28;20031;-79
2023/10/10 16:58:49;;;;;;;10.18;4.05;;;;;;;;;;5047242;28;20028;-78
2023/10/10 17:01:16;;;;;;;9.05;3.60;;;;;;;;;;5045940;28;20033;-79
2023/10/10 17:03:45;;;;;;;8.95;3.85;;;;;;;;;;5067403;28;20020;-79
2023/10/10 17:06:11;;;;;;;7.07;3.42;;;;;;;;;;5038941;28;20122;-77
2023/10/10 17:08:37;;;;;;;7.57;3.47;;;;;;;;;;5062551;28;20533;-78
2023/10/10 17:11:14;;;;;;;7.40;4.07;;;;;;;;;;5043244;28;20036;-77
2023/10/10 17:13:41;;;;;;;7.03;3.20;;;;;;;;;;5047130;28;20162;-79
2023/10/10 17:16:12;;;;;;;6.80;3.50;;;;;;;;;;5062789;28;20482;-78
2023/10/10 17:18:42;;;;;;;9.40;4.20;;;;;;;;;;5043230;28;20078;-79
2023/10/10 17:21:14;;;;;;;9.18;3.88;;;;;;;;;;5043798;28;20054;-77
2023/10/10 17:23:40;;;;;;;8.38;3.80;;;;;;;;;;5041732;28;20484;-78
2023/10/10 17:26:08;;;;;;;7.82;3.90;;;;;;;;;;5047710;28;20036;-77
2023/10/10 17:28:34;;;;;;;8.95;3.88;;;;;;;;;;5061655;28;20513;-76